createdAt,value
2018-07-23T00:00:14.602Z,1011.74
2018-07-23T00:01:13.855Z,1011.73
2018-07-23T00:02:13.883Z,1011.78
2018-07-23T00:03:13.807Z,1011.78
2018-07-23T00:04:13.786Z,1011.76
2018-07-23T00:05:14.153Z,1011.74
2018-07-23T00:06:13.745Z,1011.75
2018-07-23T00:07:13.715Z,1011.78
2018-07-23T00:08:13.739Z,1011.78
2018-07-23T00:09:13.675Z,1011.74
2018-07-23T00:10:13.644Z,1011.73
2018-07-23T00:11:14.160Z,1011.77
2018-07-23T00:12:13.598Z,1011.78
2018-07-23T00:13:13.582Z,1011.72
2018-07-23T00:14:13.590Z,1011.76
2018-07-23T00:15:13.528Z,1011.79
2018-07-23T00:16:13.512Z,1011.77
2018-07-23T00:17:13.532Z,1011.78
2018-07-23T00:18:14.106Z,1011.80
2018-07-23T00:19:13.449Z,1011.77
2018-07-23T00:20:13.411Z,1011.75
2018-07-23T00:21:13.667Z,1011.77
2018-07-23T00:22:13.410Z,1011.76
2018-07-23T00:23:13.342Z,1011.77
2018-07-23T00:24:14.107Z,1011.72
2018-07-23T00:25:13.294Z,1011.78
2018-07-23T00:26:13.314Z,1011.74
2018-07-23T00:27:13.655Z,1011.73
2018-07-23T00:28:13.228Z,1011.73
2018-07-23T00:29:13.202Z,1011.72
2018-07-23T00:30:13.181Z,1011.72
2018-07-23T00:31:14.106Z,1011.72
2018-07-23T00:32:13.176Z,1011.71
2018-07-23T00:33:13.109Z,1011.68
2018-07-23T00:34:13.607Z,1011.70
2018-07-23T00:35:13.061Z,1011.70
2018-07-23T00:36:13.038Z,1011.69
2018-07-23T00:37:13.169Z,1011.69
2018-07-23T00:38:13.010Z,1011.68
2018-07-23T00:39:13.607Z,1011.70
2018-07-23T00:40:12.945Z,1011.72
2018-07-23T00:41:13.177Z,1011.70
2018-07-23T00:42:12.895Z,1011.73
2018-07-23T00:43:12.870Z,1011.78
2018-07-23T00:44:12.855Z,1011.75
2018-07-23T00:45:12.823Z,1011.75
2018-07-23T00:46:12.847Z,1011.74
2018-07-23T00:47:13.168Z,1011.74
2018-07-23T00:48:12.758Z,1011.72
2018-07-23T00:49:12.727Z,1011.73
2018-07-23T00:50:12.704Z,1011.71
2018-07-23T00:51:12.691Z,1011.73
2018-07-23T00:52:12.711Z,1011.75
2018-07-23T00:53:12.665Z,1011.72
2018-07-23T00:54:12.614Z,1011.76
2018-07-23T00:55:12.587Z,1011.79
2018-07-23T00:56:12.600Z,1011.76
2018-07-23T00:57:12.684Z,1011.76
2018-07-23T00:58:12.517Z,1011.79
2018-07-23T00:59:13.119Z,1011.77
2018-07-23T01:00:12.466Z,1011.77
2018-07-23T01:01:12.444Z,1011.75
2018-07-23T01:02:12.465Z,1011.76
2018-07-23T01:03:12.441Z,1011.81
2018-07-23T01:04:12.388Z,1011.78
2018-07-23T01:05:12.353Z,1011.82
2018-07-23T01:06:12.322Z,1011.81
2018-07-23T01:07:12.673Z,1011.85
2018-07-23T01:08:12.335Z,1011.83
2018-07-23T01:09:12.252Z,1011.87
2018-07-23T01:10:12.227Z,1011.90
2018-07-23T01:11:13.119Z,1011.87
2018-07-23T01:12:12.181Z,1011.90
2018-07-23T01:13:12.209Z,1011.87
2018-07-23T01:14:12.133Z,1011.87
2018-07-23T01:15:12.107Z,1011.89
2018-07-23T01:16:12.617Z,1011.90
2018-07-23T01:17:12.059Z,1011.91
2018-07-23T01:18:12.101Z,1011.89
2018-07-23T01:19:12.013Z,1011.87
2018-07-23T01:20:12.620Z,1011.91
2018-07-23T01:21:11.966Z,1011.91
2018-07-23T01:22:12.620Z,1011.92
2018-07-23T01:23:11.993Z,1011.91
2018-07-23T01:24:11.890Z,1011.97
2018-07-23T01:25:12.178Z,1011.97
2018-07-23T01:26:11.900Z,1011.93
2018-07-23T01:27:11.820Z,1011.97
2018-07-23T01:28:12.619Z,1011.97
2018-07-23T01:29:11.770Z,1011.98
2018-07-23T01:30:11.793Z,1011.99
2018-07-23T01:31:11.722Z,1011.96
2018-07-23T01:32:12.178Z,1011.99
2018-07-23T01:33:11.674Z,1011.96
2018-07-23T01:34:11.654Z,1011.97
2018-07-23T01:35:11.633Z,1011.94
2018-07-23T01:36:11.684Z,1011.97
2018-07-23T01:37:11.578Z,1011.93
2018-07-23T01:38:11.555Z,1011.92
2018-07-23T01:39:11.553Z,1011.92
2018-07-23T01:40:12.176Z,1011.93
2018-07-23T01:41:11.523Z,1011.96
2018-07-23T01:42:11.502Z,1011.93
2018-07-23T01:43:11.433Z,1011.94
2018-07-23T01:44:12.132Z,1011.95
2018-07-23T01:45:11.388Z,1011.95
2018-07-23T01:46:12.124Z,1011.91
2018-07-23T01:47:11.386Z,1011.92
2018-07-23T01:48:11.353Z,1011.90
2018-07-23T01:49:11.293Z,1011.93
2018-07-23T01:50:12.131Z,1011.92
2018-07-23T01:51:11.238Z,1011.93
2018-07-23T01:52:11.213Z,1011.95
2018-07-23T01:53:11.245Z,1011.96
2018-07-23T01:54:11.164Z,1011.94
2018-07-23T01:55:11.147Z,1011.97
2018-07-23T01:56:11.116Z,1011.94
2018-07-23T01:57:11.094Z,1011.94
2018-07-23T01:58:11.197Z,1011.92
2018-07-23T01:59:11.048Z,1011.94
2018-07-23T02:00:11.021Z,1011.93
2018-07-23T02:01:11.637Z,1011.96
2018-07-23T02:02:10.979Z,1011.94
2018-07-23T02:03:10.998Z,1011.91
2018-07-23T02:04:11.631Z,1011.97
2018-07-23T02:05:10.905Z,1011.98
2018-07-23T02:06:10.886Z,1011.94
2018-07-23T02:07:11.637Z,1011.97
2018-07-23T02:08:10.869Z,1011.96
2018-07-23T02:09:10.849Z,1011.96
2018-07-23T02:10:10.779Z,1011.95
2018-07-23T02:11:10.750Z,1011.91
2018-07-23T02:12:10.726Z,1011.91
2018-07-23T02:13:10.711Z,1011.92
2018-07-23T02:14:10.745Z,1011.91
2018-07-23T02:15:10.660Z,1011.92
2018-07-23T02:16:10.679Z,1011.95
2018-07-23T02:17:10.616Z,1011.93
2018-07-23T02:18:10.592Z,1011.97
2018-07-23T02:19:11.136Z,1011.99
2018-07-23T02:20:10.537Z,1011.99
2018-07-23T02:21:10.558Z,1011.99
2018-07-23T02:22:11.136Z,1011.99
2018-07-23T02:23:10.462Z,1012.01
2018-07-23T02:24:11.133Z,1012.02
2018-07-23T02:25:10.410Z,1012.02
2018-07-23T02:26:10.427Z,1011.98
2018-07-23T02:27:10.408Z,1011.99
2018-07-23T02:28:11.133Z,1011.99
2018-07-23T02:29:10.318Z,1012.04
2018-07-23T02:30:10.293Z,1012.00
2018-07-23T02:31:10.695Z,1012.04
2018-07-23T02:32:10.246Z,1012.05
2018-07-23T02:33:10.228Z,1012.08
2018-07-23T02:34:11.141Z,1012.06
2018-07-23T02:35:10.169Z,1012.10
2018-07-23T02:36:10.709Z,1012.10
2018-07-23T02:37:10.121Z,1012.11
2018-07-23T02:38:10.639Z,1012.09
2018-07-23T02:39:10.071Z,1012.12
2018-07-23T02:40:10.050Z,1012.11
2018-07-23T02:41:10.199Z,1012.12
2018-07-23T02:42:10.045Z,1012.17
2018-07-23T02:43:09.975Z,1012.14
2018-07-23T02:44:10.638Z,1012.16
2018-07-23T02:45:09.926Z,1012.16
2018-07-23T02:46:09.909Z,1012.13
2018-07-23T02:47:09.918Z,1012.13
2018-07-23T02:48:09.855Z,1012.11
2018-07-23T02:49:10.641Z,1012.15
2018-07-23T02:50:09.800Z,1012.12
2018-07-23T02:51:10.639Z,1012.10
2018-07-23T02:52:09.798Z,1012.11
2018-07-23T02:53:09.730Z,1012.13
2018-07-23T02:54:10.241Z,1012.12
2018-07-23T02:55:09.686Z,1012.15
2018-07-23T02:56:10.641Z,1012.16
2018-07-23T02:57:09.632Z,1012.12
2018-07-23T02:58:09.769Z,1012.14
2018-07-23T02:59:09.586Z,1012.14
2018-07-23T03:00:09.561Z,1012.14
2018-07-23T03:01:10.145Z,1012.12
2018-07-23T03:02:09.511Z,1012.15
2018-07-23T03:03:09.534Z,1012.13
2018-07-23T03:04:10.145Z,1012.13
2018-07-23T03:05:09.453Z,1012.15
2018-07-23T03:06:09.426Z,1012.16
2018-07-23T03:07:10.146Z,1012.22
2018-07-23T03:08:09.413Z,1012.19
2018-07-23T03:09:10.148Z,1012.16
2018-07-23T03:10:09.310Z,1012.18
2018-07-23T03:11:10.150Z,1012.19
2018-07-23T03:12:09.320Z,1012.24
2018-07-23T03:13:09.243Z,1012.21
2018-07-23T03:14:10.148Z,1012.24
2018-07-23T03:15:09.198Z,1012.24
2018-07-23T03:16:10.144Z,1012.24
2018-07-23T03:17:09.190Z,1012.23
2018-07-23T03:18:09.168Z,1012.27
2018-07-23T03:19:09.650Z,1012.27
2018-07-23T03:20:09.078Z,1012.27
2018-07-23T03:21:09.651Z,1012.28
2018-07-23T03:22:09.024Z,1012.26
2018-07-23T03:23:09.047Z,1012.28
2018-07-23T03:24:09.650Z,1012.30
2018-07-23T03:25:08.993Z,1012.24
2018-07-23T03:26:09.646Z,1012.28
2018-07-23T03:27:08.898Z,1012.27
2018-07-23T03:28:08.880Z,1012.28
2018-07-23T03:29:09.205Z,1012.28
2018-07-23T03:30:08.827Z,1012.29
2018-07-23T03:31:09.203Z,1012.31
2018-07-23T03:32:08.829Z,1012.35
2018-07-23T03:33:08.763Z,1012.33
2018-07-23T03:34:09.651Z,1012.31
2018-07-23T03:35:08.750Z,1012.36
2018-07-23T03:36:08.680Z,1012.34
2018-07-23T03:37:09.209Z,1012.31
2018-07-23T03:38:08.635Z,1012.30
2018-07-23T03:39:08.607Z,1012.32
2018-07-23T03:40:08.583Z,1012.33
2018-07-23T03:41:09.150Z,1012.34
2018-07-23T03:42:08.578Z,1012.33
2018-07-23T03:43:08.518Z,1012.34
2018-07-23T03:44:08.706Z,1012.36
2018-07-23T03:45:08.463Z,1012.33
2018-07-23T03:46:08.460Z,1012.31
2018-07-23T03:47:09.155Z,1012.30
2018-07-23T03:48:08.395Z,1012.34
2018-07-23T03:49:08.420Z,1012.36
2018-07-23T03:50:09.157Z,1012.39
2018-07-23T03:51:08.319Z,1012.37
2018-07-23T03:52:08.294Z,1012.40
2018-07-23T03:53:09.153Z,1012.40
2018-07-23T03:54:08.297Z,1012.41
2018-07-23T03:55:08.719Z,1012.40
2018-07-23T03:56:08.205Z,1012.41
2018-07-23T03:57:08.172Z,1012.48
2018-07-23T03:58:08.219Z,1012.44
2018-07-23T03:59:08.122Z,1012.44
2018-07-23T04:00:08.099Z,1012.46
2018-07-23T04:01:08.659Z,1012.47
2018-07-23T04:02:08.052Z,1012.46
2018-07-23T04:03:08.066Z,1012.45
2018-07-23T04:04:08.004Z,1012.43
2018-07-23T04:05:07.982Z,1012.42
2018-07-23T04:06:07.954Z,1012.44
2018-07-23T04:07:08.223Z,1012.39
2018-07-23T04:08:07.962Z,1012.43
2018-07-23T04:09:08.655Z,1012.40
2018-07-23T04:10:07.953Z,1012.39
2018-07-23T04:11:08.663Z,1012.39
2018-07-23T04:12:07.856Z,1012.43
2018-07-23T04:13:07.788Z,1012.42
2018-07-23T04:14:08.217Z,1012.47
2018-07-23T04:15:07.740Z,1012.43
2018-07-23T04:16:07.711Z,1012.44
2018-07-23T04:17:08.656Z,1012.46
2018-07-23T04:18:07.702Z,1012.47
2018-07-23T04:19:07.716Z,1012.48
2018-07-23T04:20:07.625Z,1012.45
2018-07-23T04:21:08.156Z,1012.47
2018-07-23T04:22:07.575Z,1012.45
2018-07-23T04:23:07.589Z,1012.49
2018-07-23T04:24:08.159Z,1012.47
2018-07-23T04:25:07.498Z,1012.46
2018-07-23T04:26:07.715Z,1012.49
2018-07-23T04:27:07.448Z,1012.47
2018-07-23T04:28:08.159Z,1012.47
2018-07-23T04:29:07.444Z,1012.49
2018-07-23T04:30:07.377Z,1012.53
2018-07-23T04:31:08.159Z,1012.51
2018-07-23T04:32:07.329Z,1012.49
2018-07-23T04:33:07.363Z,1012.49
2018-07-23T04:34:08.158Z,1012.53
2018-07-23T04:35:07.259Z,1012.49
2018-07-23T04:36:07.234Z,1012.50
2018-07-23T04:37:08.160Z,1012.47
2018-07-23T04:38:07.230Z,1012.52
2018-07-23T04:39:07.217Z,1012.53
2018-07-23T04:40:07.142Z,1012.55
2018-07-23T04:41:07.288Z,1012.53
2018-07-23T04:42:07.095Z,1012.52
2018-07-23T04:43:07.067Z,1012.57
2018-07-23T04:44:07.045Z,1012.55
2018-07-23T04:45:07.078Z,1012.54
2018-07-23T04:46:07.664Z,1012.52
2018-07-23T04:47:06.976Z,1012.55
2018-07-23T04:48:06.961Z,1012.56
2018-07-23T04:49:06.946Z,1012.61
2018-07-23T04:50:06.949Z,1012.64
2018-07-23T04:51:06.882Z,1012.64
2018-07-23T04:52:06.862Z,1012.66
2018-07-23T04:53:06.834Z,1012.67
2018-07-23T04:54:06.808Z,1012.66
2018-07-23T04:55:06.837Z,1012.65
2018-07-23T04:56:06.764Z,1012.64
2018-07-23T04:57:06.747Z,1012.63
2018-07-23T04:58:06.726Z,1012.66
2018-07-23T04:59:06.704Z,1012.68
2018-07-23T05:00:06.720Z,1012.72
2018-07-23T05:01:06.703Z,1012.69
2018-07-23T05:02:06.625Z,1012.67
2018-07-23T05:03:06.601Z,1012.67
2018-07-23T05:04:06.576Z,1012.69
2018-07-23T05:05:06.552Z,1012.71
2018-07-23T05:06:06.589Z,1012.74
2018-07-23T05:07:06.506Z,1012.78
2018-07-23T05:08:06.487Z,1012.76
2018-07-23T05:09:06.461Z,1012.78
2018-07-23T05:10:06.436Z,1012.79
2018-07-23T05:11:06.470Z,1012.83
2018-07-23T05:12:06.394Z,1012.84
2018-07-23T05:13:06.366Z,1012.84
2018-07-23T05:14:06.345Z,1012.86
2018-07-23T05:15:06.321Z,1012.84
2018-07-23T05:16:06.453Z,1012.84
2018-07-23T05:17:06.321Z,1012.84
2018-07-23T05:18:06.254Z,1012.86
2018-07-23T05:19:06.233Z,1012.87
2018-07-23T05:20:06.208Z,1012.88
2018-07-23T05:21:06.231Z,1012.87
2018-07-23T05:22:06.214Z,1012.91
2018-07-23T05:23:06.139Z,1012.88
2018-07-23T05:24:06.117Z,1012.88
2018-07-23T05:25:06.103Z,1012.88
2018-07-23T05:26:06.072Z,1012.89
2018-07-23T05:27:06.106Z,1012.91
2018-07-23T05:28:06.030Z,1012.88
2018-07-23T05:29:06.001Z,1012.89
2018-07-23T05:30:05.981Z,1012.90
2018-07-23T05:31:05.957Z,1012.92
2018-07-23T05:32:05.969Z,1012.95
2018-07-23T05:33:05.981Z,1012.92
2018-07-23T05:34:05.886Z,1012.97
2018-07-23T05:35:05.868Z,1012.95
2018-07-23T05:36:05.844Z,1012.99
2018-07-23T05:37:05.829Z,1012.98
2018-07-23T05:38:05.837Z,1012.99
2018-07-23T05:39:05.785Z,1013.00
2018-07-23T05:40:05.814Z,1013.01
2018-07-23T05:41:05.731Z,1013.01
2018-07-23T05:42:05.703Z,1013.00
2018-07-23T05:43:05.694Z,1013.03
2018-07-23T05:44:05.714Z,1013.00
2018-07-23T05:45:05.653Z,1013.01
2018-07-23T05:46:05.642Z,1012.97
2018-07-23T05:47:05.590Z,1012.99
2018-07-23T05:48:05.586Z,1012.96
2018-07-23T05:49:05.606Z,1013.03
2018-07-23T05:50:05.529Z,1013.03
2018-07-23T05:51:05.499Z,1013.01
2018-07-23T05:52:05.478Z,1013.08
2018-07-23T05:53:05.461Z,1013.09
2018-07-23T05:54:05.474Z,1013.09
2018-07-23T05:55:05.456Z,1013.11
2018-07-23T05:56:05.390Z,1013.07
2018-07-23T05:57:05.369Z,1013.08
2018-07-23T05:58:05.340Z,1013.13
2018-07-23T05:59:05.338Z,1013.09
2018-07-23T06:00:05.356Z,1013.08
2018-07-23T06:01:05.312Z,1013.08
2018-07-23T06:02:06.183Z,1013.07
2018-07-23T06:03:05.230Z,1013.10
2018-07-23T06:04:05.204Z,1013.09
2018-07-23T06:05:05.244Z,1013.06
2018-07-23T06:06:05.207Z,1013.11
2018-07-23T06:07:05.684Z,1013.11
2018-07-23T06:08:05.118Z,1013.08
2018-07-23T06:09:05.099Z,1013.14
2018-07-23T06:10:05.126Z,1013.20
2018-07-23T06:11:05.065Z,1013.15
2018-07-23T06:12:05.030Z,1013.15
2018-07-23T06:13:05.015Z,1013.16
2018-07-23T06:14:04.986Z,1013.21
2018-07-23T06:15:05.252Z,1013.20
2018-07-23T06:16:04.981Z,1013.18
2018-07-23T06:17:04.918Z,1013.19
2018-07-23T06:18:04.910Z,1013.17
2018-07-23T06:19:04.871Z,1013.18
2018-07-23T06:20:04.851Z,1013.21
2018-07-23T06:21:04.875Z,1013.19
2018-07-23T06:22:04.805Z,1013.23
2018-07-23T06:23:04.783Z,1013.18
2018-07-23T06:24:04.760Z,1013.18
2018-07-23T06:25:04.741Z,1013.22
2018-07-23T06:26:04.757Z,1013.24
2018-07-23T06:27:04.692Z,1013.24
2018-07-23T06:28:04.674Z,1013.24
2018-07-23T06:29:04.649Z,1013.28
2018-07-23T06:30:04.671Z,1013.25
2018-07-23T06:31:04.653Z,1013.25
2018-07-23T06:32:04.624Z,1013.29
2018-07-23T06:33:04.560Z,1013.25
2018-07-23T06:34:04.550Z,1013.28
2018-07-23T06:35:04.692Z,1013.26
2018-07-23T06:36:04.494Z,1013.22
2018-07-23T06:37:04.517Z,1013.19
2018-07-23T06:38:04.453Z,1013.23
2018-07-23T06:39:04.442Z,1013.19
2018-07-23T06:40:04.405Z,1013.18
2018-07-23T06:41:04.385Z,1013.24
2018-07-23T06:42:04.409Z,1013.21
2018-07-23T06:43:04.347Z,1013.19
2018-07-23T06:44:04.316Z,1013.23
2018-07-23T06:45:04.294Z,1013.20
2018-07-23T06:46:04.321Z,1013.21
2018-07-23T06:47:04.252Z,1013.17
2018-07-23T06:48:04.287Z,1013.16
2018-07-23T06:49:04.208Z,1013.17
2018-07-23T06:50:04.188Z,1013.13
2018-07-23T06:51:04.169Z,1013.15
2018-07-23T06:52:04.141Z,1013.14
2018-07-23T06:53:04.176Z,1013.13
2018-07-23T06:54:04.106Z,1013.12
2018-07-23T06:55:04.090Z,1013.17
2018-07-23T06:56:04.056Z,1013.21
2018-07-23T06:57:04.035Z,1013.20
2018-07-23T06:58:04.058Z,1013.15
2018-07-23T06:59:04.004Z,1013.18
2018-07-23T07:00:04.001Z,1013.15
2018-07-23T07:01:03.947Z,1013.20
2018-07-23T07:02:03.923Z,1013.17
2018-07-23T07:03:03.902Z,1013.19
2018-07-23T07:04:03.884Z,1013.16
2018-07-23T07:05:03.906Z,1013.21
2018-07-23T07:06:03.839Z,1013.21
2018-07-23T07:07:03.817Z,1013.23
2018-07-23T07:08:03.795Z,1013.20
2018-07-23T07:09:03.776Z,1013.19
2018-07-23T07:10:03.824Z,1013.23
2018-07-23T07:11:03.728Z,1013.22
2018-07-23T07:12:03.715Z,1013.17
2018-07-23T07:13:03.684Z,1013.18
2018-07-23T07:14:03.662Z,1013.20
2018-07-23T07:15:03.689Z,1013.15
2018-07-23T07:16:03.667Z,1013.22
2018-07-23T07:17:03.619Z,1013.21
2018-07-23T07:18:03.576Z,1013.18
2018-07-23T07:19:03.567Z,1013.20
2018-07-23T07:20:03.532Z,1013.22
2018-07-23T07:21:03.551Z,1013.20
2018-07-23T07:22:03.538Z,1013.21
2018-07-23T07:23:03.466Z,1013.26
2018-07-23T07:24:04.205Z,1013.22
2018-07-23T07:25:03.422Z,1013.23
2018-07-23T07:26:03.410Z,1013.32
2018-07-23T07:27:03.434Z,1013.27
2018-07-23T07:28:03.383Z,1013.28
2018-07-23T07:29:04.201Z,1013.28
2018-07-23T07:30:03.314Z,1013.31
2018-07-23T07:31:03.293Z,1013.33
2018-07-23T07:32:03.348Z,1013.29
2018-07-23T07:33:03.255Z,1013.30
2018-07-23T07:34:03.229Z,1013.26
2018-07-23T07:35:03.209Z,1013.32
2018-07-23T07:36:03.189Z,1013.27
2018-07-23T07:37:03.212Z,1013.32
2018-07-23T07:38:03.212Z,1013.29
2018-07-23T07:39:03.118Z,1013.36
2018-07-23T07:40:03.155Z,1013.35
2018-07-23T07:41:03.077Z,1013.29
2018-07-23T07:42:03.067Z,1013.28
2018-07-23T07:43:03.034Z,1013.32
2018-07-23T07:44:03.014Z,1013.38
2018-07-23T07:45:03.049Z,1013.47
2018-07-23T07:46:02.971Z,1013.31
2018-07-23T07:47:02.966Z,1013.33
2018-07-23T07:48:02.930Z,1013.28
2018-07-23T07:49:02.911Z,1013.30
2018-07-23T07:50:02.929Z,1013.32
2018-07-23T07:51:02.864Z,1013.39
2018-07-23T07:52:02.844Z,1013.30
2018-07-23T07:53:02.872Z,1013.30
2018-07-23T07:54:02.804Z,1013.31
2018-07-23T07:55:02.775Z,1013.38
2018-07-23T07:56:02.765Z,1013.30
2018-07-23T07:57:04.700Z,1013.38
2018-07-23T07:58:02.762Z,1013.36
2018-07-23T07:59:02.727Z,1013.32
2018-07-23T08:00:02.674Z,1013.35
2018-07-23T08:01:02.696Z,1013.38
2018-07-23T08:02:02.625Z,1013.33
2018-07-23T08:03:02.606Z,1013.41
2018-07-23T08:04:02.633Z,1013.34
2018-07-23T08:05:02.570Z,1013.38
2018-07-23T08:06:02.597Z,1013.47
2018-07-23T08:07:02.587Z,1013.44
2018-07-23T08:08:02.503Z,1013.49
2018-07-23T08:09:02.521Z,1013.41
2018-07-23T08:10:02.460Z,1013.51
2018-07-23T08:11:02.434Z,1013.45
2018-07-23T08:12:02.463Z,1013.39
2018-07-23T08:13:02.421Z,1013.41
2018-07-23T08:14:02.399Z,1013.38
2018-07-23T08:15:03.220Z,1013.40
2018-07-23T08:16:02.369Z,1013.47
2018-07-23T08:17:02.773Z,1013.44
2018-07-23T08:18:02.285Z,1013.40
2018-07-23T08:19:02.769Z,1013.40
2018-07-23T08:20:02.241Z,1013.37
2018-07-23T08:21:02.431Z,1013.36
2018-07-23T08:22:02.252Z,1013.30
2018-07-23T08:23:03.124Z,1013.36
2018-07-23T08:24:02.264Z,1013.32
2018-07-23T08:25:04.135Z,1013.36
2018-07-23T08:26:03.167Z,1013.41
2018-07-23T08:27:02.426Z,1013.40
2018-07-23T08:28:02.074Z,1013.41
2018-07-23T08:29:02.097Z,1013.40
2018-07-23T08:30:02.031Z,1013.43
2018-07-23T08:31:02.008Z,1013.42
2018-07-23T08:32:02.085Z,1013.43
2018-07-23T08:33:01.976Z,1013.47
2018-07-23T08:34:01.945Z,1013.40
2018-07-23T08:35:01.932Z,1013.37
2018-07-23T08:36:01.909Z,1013.52
2018-07-23T08:37:01.935Z,1013.50
2018-07-23T08:38:01.865Z,1013.47
2018-07-23T08:39:01.847Z,1013.44
2018-07-23T08:40:01.866Z,1013.56
2018-07-23T08:41:02.729Z,1013.48
2018-07-23T08:42:01.777Z,1013.53
2018-07-23T08:43:01.773Z,1013.47
2018-07-23T08:44:01.737Z,1013.52
2018-07-23T08:45:01.839Z,1013.55
2018-07-23T08:46:01.696Z,1013.51
2018-07-23T08:47:01.677Z,1013.59
2018-07-23T08:48:01.756Z,1013.58
2018-07-23T08:49:01.681Z,1013.53
2018-07-23T08:50:01.611Z,1013.48
2018-07-23T08:51:01.804Z,1013.57
2018-07-23T08:52:01.593Z,1013.50
2018-07-23T08:53:01.548Z,1013.50
2018-07-23T08:54:01.527Z,1013.61
2018-07-23T08:55:01.515Z,1013.57
2018-07-23T08:56:01.565Z,1013.56
2018-07-23T08:57:01.477Z,1013.70
2018-07-23T08:58:01.449Z,1013.63
2018-07-23T08:59:01.425Z,1013.65
2018-07-23T09:00:01.412Z,1013.64
2018-07-23T09:01:01.433Z,1013.62
2018-07-23T09:02:01.366Z,1013.73
2018-07-23T09:03:01.343Z,1013.80
2018-07-23T09:04:01.365Z,1013.75
2018-07-23T09:05:01.310Z,1013.71
2018-07-23T09:06:01.324Z,1013.68
2018-07-23T09:07:01.305Z,1013.71
2018-07-23T09:08:01.237Z,1013.66
2018-07-23T09:09:01.222Z,1013.70
2018-07-23T09:10:01.243Z,1013.68
2018-07-23T09:11:01.179Z,1013.69
2018-07-23T09:12:01.152Z,1013.71
2018-07-23T09:13:01.166Z,1013.66
2018-07-23T09:14:01.110Z,1013.68
2018-07-23T09:15:01.149Z,1013.59
2018-07-23T09:16:01.074Z,1013.71
2018-07-23T09:17:01.094Z,1013.65
2018-07-23T09:18:01.031Z,1013.75
2018-07-23T09:19:01.007Z,1013.68
2018-07-23T09:20:01.006Z,1013.65
2018-07-23T09:21:01.015Z,1013.65
2018-07-23T09:22:00.999Z,1013.67
2018-07-23T09:23:00.979Z,1013.69
2018-07-23T09:24:00.908Z,1013.63
2018-07-23T09:25:00.886Z,1013.63
2018-07-23T09:26:00.870Z,1013.65
2018-07-23T09:27:00.898Z,1013.67
2018-07-23T09:28:00.825Z,1013.59
2018-07-23T09:29:00.805Z,1013.61
2018-07-23T09:30:00.789Z,1013.63
2018-07-23T09:31:01.795Z,1013.60
2018-07-23T09:32:00.783Z,1013.63
2018-07-23T09:33:00.726Z,1013.55
2018-07-23T09:34:00.706Z,1013.65
2018-07-23T09:35:00.738Z,1013.54
2018-07-23T09:36:00.666Z,1013.67
2018-07-23T09:37:00.649Z,1013.64
2018-07-23T09:38:00.619Z,1013.62
2018-07-23T09:39:00.598Z,1013.50
2018-07-23T09:40:00.660Z,1013.60
2018-07-23T09:41:00.574Z,1013.59
2018-07-23T09:42:00.588Z,1013.59
2018-07-23T09:43:00.522Z,1013.62
2018-07-23T09:44:00.499Z,1013.55
2018-07-23T09:45:00.475Z,1013.60
2018-07-23T09:46:00.496Z,1013.58
2018-07-23T09:47:01.244Z,1013.55
2018-07-23T09:48:00.422Z,1013.54
2018-07-23T09:49:00.394Z,1013.59
2018-07-23T09:50:00.420Z,1013.67
2018-07-23T09:51:00.371Z,1013.59
2018-07-23T09:52:01.258Z,1013.56
2018-07-23T09:53:00.366Z,1013.57
2018-07-23T09:54:00.305Z,1013.62
2018-07-23T09:55:00.281Z,1013.66
2018-07-23T09:56:00.301Z,1013.63
2018-07-23T09:57:00.232Z,1013.62
2018-07-23T09:58:00.215Z,1013.57
2018-07-23T09:59:00.200Z,1013.63
2018-07-23T10:00:00.213Z,1013.64
2018-07-23T10:01:00.201Z,1013.57
2018-07-23T10:02:00.176Z,1013.53
2018-07-23T10:03:00.151Z,1013.56
2018-07-23T10:04:00.085Z,1013.50
2018-07-23T10:05:00.067Z,1013.53
2018-07-23T10:06:00.048Z,1013.51
2018-07-23T10:07:00.074Z,1013.47
2018-07-23T10:08:00.747Z,1013.45
2018-07-23T10:08:59.988Z,1013.48
2018-07-23T10:09:59.970Z,1013.49
2018-07-23T10:10:59.990Z,1013.44
2018-07-23T10:11:59.981Z,1013.46
2018-07-23T10:13:00.749Z,1013.51
2018-07-23T10:13:59.881Z,1013.62
2018-07-23T10:14:59.869Z,1013.58
2018-07-23T10:15:59.842Z,1013.57
2018-07-23T10:16:59.881Z,1013.48
2018-07-23T10:18:00.751Z,1013.43
2018-07-23T10:18:59.783Z,1013.48
2018-07-23T10:19:59.760Z,1013.45
2018-07-23T10:20:59.760Z,1013.35
2018-07-23T10:21:59.741Z,1013.41
2018-07-23T10:22:59.744Z,1013.35
2018-07-23T10:23:59.683Z,1013.46
2018-07-23T10:24:59.667Z,1013.47
2018-07-23T10:25:59.644Z,1013.47
2018-07-23T10:26:59.667Z,1013.46
2018-07-23T10:27:59.605Z,1013.43
2018-07-23T10:28:59.624Z,1013.41
2018-07-23T10:29:59.560Z,1013.42
2018-07-23T10:30:59.551Z,1013.42
2018-07-23T10:31:59.522Z,1013.42
2018-07-23T10:32:59.497Z,1013.37
2018-07-23T10:33:59.519Z,1013.35
2018-07-23T10:34:59.500Z,1013.32
2018-07-23T10:35:59.441Z,1013.33
2018-07-23T10:36:59.418Z,1013.37
2018-07-23T10:37:59.406Z,1013.44
2018-07-23T10:38:59.424Z,1013.39
2018-07-23T10:39:59.360Z,1013.32
2018-07-23T10:40:59.342Z,1013.38
2018-07-23T10:41:59.326Z,1013.46
2018-07-23T10:42:59.298Z,1013.39
2018-07-23T10:43:59.339Z,1013.39
2018-07-23T10:44:59.284Z,1013.35
2018-07-23T10:45:59.246Z,1013.26
2018-07-23T10:46:59.220Z,1013.31
2018-07-23T10:47:59.202Z,1013.31
2018-07-23T10:48:59.311Z,1013.25
2018-07-23T10:49:59.160Z,1013.24
2018-07-23T10:50:59.195Z,1013.24
2018-07-23T10:51:59.170Z,1013.26
2018-07-23T10:52:59.101Z,1013.42
2018-07-23T10:53:59.081Z,1013.30
2018-07-23T10:54:59.126Z,1013.34
2018-07-23T10:55:59.044Z,1013.30
2018-07-23T10:56:59.026Z,1013.28
2018-07-23T10:57:59.006Z,1013.29
2018-07-23T10:58:58.984Z,1013.29
2018-07-23T10:59:59.016Z,1013.30
2018-07-23T11:00:58.941Z,1013.24
2018-07-23T11:01:58.932Z,1013.22
2018-07-23T11:02:58.904Z,1013.28
2018-07-23T11:03:58.893Z,1013.25
2018-07-23T11:04:59.316Z,1013.37
2018-07-23T11:05:58.854Z,1013.17
2018-07-23T11:06:58.827Z,1013.20
2018-07-23T11:07:58.813Z,1013.37
2018-07-23T11:08:58.795Z,1013.23
2018-07-23T11:09:58.829Z,1013.17
2018-07-23T11:10:58.745Z,1013.32
2018-07-23T11:11:58.735Z,1013.25
2018-07-23T11:12:58.706Z,1013.23
2018-07-23T11:13:58.689Z,1013.21
2018-07-23T11:14:58.727Z,1013.18
2018-07-23T11:15:58.652Z,1013.25
2018-07-23T11:16:58.639Z,1013.30
2018-07-23T11:17:58.647Z,1013.22
2018-07-23T11:18:58.588Z,1013.24
2018-07-23T11:19:58.571Z,1013.20
2018-07-23T11:20:58.596Z,1013.18
2018-07-23T11:21:58.535Z,1013.28
2018-07-23T11:22:58.521Z,1013.27
2018-07-23T11:23:58.551Z,1013.25
2018-07-23T11:24:58.558Z,1013.31
2018-07-23T11:25:58.496Z,1013.22
2018-07-23T11:26:58.441Z,1013.22
2018-07-23T11:27:58.415Z,1013.16
2018-07-23T11:28:58.444Z,1013.20
2018-07-23T11:29:59.270Z,1013.18
2018-07-23T11:30:58.400Z,1013.22
2018-07-23T11:31:58.349Z,1013.21
2018-07-23T11:32:58.320Z,1013.16
2018-07-23T11:33:58.295Z,1013.20
2018-07-23T11:34:58.286Z,1013.23
2018-07-23T11:35:58.343Z,1013.18
2018-07-23T11:36:58.238Z,1013.12
2018-07-23T11:37:58.233Z,1013.13
2018-07-23T11:38:58.202Z,1013.22
2018-07-23T11:39:58.179Z,1013.18
2018-07-23T11:40:58.331Z,1013.17
2018-07-23T11:41:58.143Z,1013.20
2018-07-23T11:42:58.121Z,1013.15
2018-07-23T11:43:58.107Z,1013.21
2018-07-23T11:44:58.085Z,1013.20
2018-07-23T11:45:58.117Z,1013.15
2018-07-23T11:46:58.043Z,1013.06
2018-07-23T11:47:58.023Z,1013.11
2018-07-23T11:48:58.006Z,1013.21
2018-07-23T11:49:57.981Z,1013.12
2018-07-23T11:50:58.018Z,1013.12
2018-07-23T11:51:57.961Z,1013.16
2018-07-23T11:52:57.932Z,1013.15
2018-07-23T11:53:57.909Z,1013.19
2018-07-23T11:54:57.895Z,1013.22
2018-07-23T11:55:57.918Z,1013.13
2018-07-23T11:56:57.872Z,1013.20
2018-07-23T11:57:57.833Z,1013.20
2018-07-23T11:58:57.811Z,1013.16
2018-07-23T11:59:57.796Z,1013.11
2018-07-23T12:00:57.845Z,1013.12
2018-07-23T12:01:57.773Z,1013.15
2018-07-23T12:02:57.734Z,1013.08
2018-07-23T12:03:57.723Z,1013.06
2018-07-23T12:04:57.737Z,1013.06